Time;durP1;ratioP1;P1;durP2;ratioP2;P2;SDS_P1;SDS_P2;PMS_P1;PMS_P2;Temp;Humidity;BMP_temperature;BMP_pressure;BME280_temperature;BME280_humidity;BME280_pressure;Samples;Min_cycle;Max_cycle;Signal;HPM_P1;HPM_P2
2023/12/04 00:01:12;;;;;;;32.53;18.33;;;;;;;-5.70;77.40;98651.50;4955954;28;20026;-72
2023/12/04 00:03:37;;;;;;;39.13;19.23;;;;;;;-5.69;77.44;98653.13;4955599;28;20038;-72
2023/12/04 00:06:03;;;;;;;34.45;18.33;;;;;;;-5.79;77.30;98651.44;4963155;28;20042;-71
2023/12/04 00:08:28;;;;;;;35.30;19.67;;;;;;;-5.72;77.87;98656.00;4972019;28;20439;-72
2023/12/04 00:10:54;;;;;;;33.60;26.38;;;;;;;-5.53;76.95;98646.59;4955823;28;20066;-70
2023/12/04 00:13:19;;;;;;;38.05;19.27;;;;;;;-5.74;77.30;98634.34;4970547;28;20368;-70
2023/12/04 00:15:44;;;;;;;34.97;25.08;;;;;;;-5.60;77.01;98636.59;4966982;28;20486;-70
2023/12/04 00:18:10;;;;;;;38.22;23.73;;;;;;;-5.62;76.92;98628.03;4969935;28;20521;-70
2023/12/04 00:20:36;;;;;;;36.17;20.05;;;;;;;-5.68;76.64;98630.38;4971444;28;20038;-70
2023/12/04 00:23:02;;;;;;;36.22;23.00;;;;;;;-5.61;76.70;98636.75;4968461;28;20038;-72
2023/12/04 00:25:27;;;;;;;35.05;24.17;;;;;;;-5.58;76.78;98627.78;4962729;28;20603;-71
2023/12/04 00:27:53;;;;;;;36.40;20.15;;;;;;;-5.70;76.42;98625.28;4971460;28;20035;-72
2023/12/04 00:30:18;;;;;;;35.42;20.85;;;;;;;-5.84;77.04;98583.69;4955563;28;20042;-72
2023/12/04 00:32:44;;;;;;;34.30;25.52;;;;;;;-5.58;76.58;98594.53;4966167;28;20057;-70
2023/12/04 00:35:09;;;;;;;35.92;27.98;;;;;;;-5.56;76.25;98583.88;4971613;28;20049;-71
2023/12/04 00:37:38;;;;;;;34.47;20.75;;;;;;;-5.70;76.30;98575.44;4964591;28;20042;-70
2023/12/04 00:40:04;;;;;;;40.33;18.88;;;;;;;-5.78;76.68;98575.25;4975598;28;20018;-71
2023/12/04 00:42:29;;;;;;;35.95;18.52;;;;;;;-5.77;76.16;98571.69;4955075;28;20074;-71
2023/12/04 00:44:55;;;;;;;34.13;20.92;;;;;;;-5.85;76.51;98557.59;4962440;28;20051;-71
2023/12/04 00:47:20;;;;;;;39.13;18.58;;;;;;;-6.03;76.95;98546.09;4951987;28;20026;-70
2023/12/04 00:49:45;;;;;;;35.38;25.38;;;;;;;-5.69;77.24;98565.75;4967261;28;20559;-72
2023/12/04 00:52:11;;;;;;;37.70;19.73;;;;;;;-5.88;76.61;98566.56;4971440;28;20045;-72
2023/12/04 00:54:39;;;;;;;39.75;22.10;;;;;;;-5.81;77.31;98572.91;4968687;28;20034;-71
2023/12/04 00:57:05;;;;;;;37.85;20.65;;;;;;;-5.93;77.05;98570.56;4954337;28;20098;-72
2023/12/04 00:59:30;;;;;;;38.88;19.92;;;;;;;-5.99;77.92;98571.91;4971304;28;20027;-71
2023/12/04 01:01:55;;;;;;;36.65;20.55;;;;;;;-6.12;77.92;98550.34;4971234;28;20043;-71
2023/12/04 01:04:21;;;;;;;40.17;20.50;;;;;;;-5.97;77.69;98567.34;4950223;28;20554;-71
2023/12/04 01:06:46;;;;;;;39.30;20.52;;;;;;;-5.90;77.81;98565.88;4965132;28;20031;-71
2023/12/04 01:09:11;;;;;;;40.60;20.67;;;;;;;-6.02;77.78;98550.38;4971405;28;20529;-71
2023/12/04 01:11:37;;;;;;;40.67;23.13;;;;;;;-5.80;78.19;98565.88;4972410;28;20043;-71
2023/12/04 01:14:02;;;;;;;40.25;30.90;;;;;;;-5.61;77.26;98551.03;4955320;28;20035;-71
2023/12/04 01:16:28;;;;;;;39.65;32.75;;;;;;;-5.60;77.62;98552.66;4953787;28;20034;-71
2023/12/04 01:18:53;;;;;;;45.17;33.75;;;;;;;-5.69;77.10;98543.00;4971266;28;20085;-71
2023/12/04 01:21:19;;;;;;;36.50;19.13;;;;;;;-6.03;77.33;98539.06;4952945;28;20491;-71
2023/12/04 01:23:44;;;;;;;42.17;20.58;;;;;;;-6.03;77.33;98551.34;4966869;28;20113;-71
2023/12/04 01:26:10;;;;;;;38.40;20.38;;;;;;;-6.01;77.50;98550.25;4970882;28;20070;-70
2023/12/04 01:28:35;;;;;;;39.58;28.98;;;;;;;-5.76;77.61;98551.53;4967750;28;20093;-70
2023/12/04 01:31:01;;;;;;;38.80;25.70;;;;;;;-5.89;77.91;98525.59;4971293;28;20039;-70
2023/12/04 01:33:26;;;;;;;36.88;20.65;;;;;;;-6.01;77.60;98526.66;4965898;28;20110;-71
2023/12/04 01:35:52;;;;;;;44.83;30.83;;;;;;;-5.73;77.15;98533.75;4975217;28;20050;-70
2023/12/04 01:38:17;;;;;;;38.08;19.30;;;;;;;-6.01;77.68;98515.34;4970873;28;20038;-71
2023/12/04 01:40:43;;;;;;;36.58;19.95;;;;;;;-5.92;77.30;98523.22;4958588;28;20498;-71
2023/12/04 01:43:08;;;;;;;35.50;18.95;;;;;;;-5.90;77.80;98521.28;4974992;28;20043;-71
2023/12/04 01:45:33;;;;;;;41.00;20.17;;;;;;;-6.06;77.75;98502.63;4974729;28;20570;-71
2023/12/04 01:47:59;;;;;;;33.80;17.90;;;;;;;-5.92;77.90;98523.22;4957938;28;20035;-71
2023/12/04 01:50:24;;;;;;;38.72;19.23;;;;;;;-5.97;77.49;98520.16;4974599;28;20089;-71
2023/12/04 01:52:52;;;;;;;34.03;18.98;;;;;;;-5.96;77.45;98524.47;4958379;28;20089;-71
2023/12/04 01:55:17;;;;;;;38.78;29.73;;;;;;;-5.70;77.97;98525.63;4977612;28;20057;-72
2023/12/04 01:57:43;;;;;;;34.17;28.27;;;;;;;-5.66;77.11;98521.75;4974225;28;20372;-71
2023/12/04 02:00:12;;;;;;;34.55;19.25;;;;;;;-6.06;76.77;98509.66;4939593;28;20045;-71
2023/12/04 02:02:44;;;;;;;34.08;26.17;;;;;;;-5.78;77.21;98522.81;4974133;28;20089;-70
2023/12/04 02:05:09;;;;;;;32.20;19.02;;;;;;;-6.04;77.50;98519.03;4958633;28;20045;-70
2023/12/04 02:07:36;;;;;;;37.38;18.52;;;;;;;-5.96;77.45;98523.63;4948257;28;20035;-71
2023/12/04 02:10:02;;;;;;;40.33;24.70;;;;;;;-5.85;76.98;98516.50;4958365;28;20043;-71
2023/12/04 02:12:28;;;;;;;38.00;19.77;;;;;;;-6.04;76.88;98510.34;4954637;28;20105;-70
2023/12/04 02:14:53;;;;;;;35.10;27.70;;;;;;;-5.84;77.40;98506.84;4973928;28;20554;-70
2023/12/04 02:17:19;;;;;;;36.25;19.33;;;;;;;-5.98;76.43;98510.66;4969108;28;20058;-69
2023/12/04 02:19:45;;;;;;;33.28;18.38;;;;;;;-5.91;76.78;98516.19;4973556;28;20490;-70
2023/12/04 02:22:10;;;;;;;31.88;20.67;;;;;;;-5.86;77.32;98514.81;4949477;28;20086;-70
2023/12/04 02:24:36;;;;;;;30.42;17.67;;;;;;;-5.91;77.24;98522.28;4973392;28;20398;-69
2023/12/04 02:27:15;;;;;;;31.73;17.02;;;;;;;-5.91;76.60;98521.44;4964744;28;20035;-70
2023/12/04 02:29:47;;;;;;;33.15;19.52;;;;;;;-5.82;77.04;98524.06;4968383;28;20035;-69
2023/12/04 02:32:15;;;;;;;29.73;16.52;;;;;;;-5.94;77.10;98526.94;4939190;28;20442;-71
2023/12/04 02:34:41;;;;;;;35.30;27.88;;;;;;;-5.76;76.84;98515.66;4950952;29;20024;-71
2023/12/04 02:37:08;;;;;;;33.83;22.33;;;;;;;-5.83;76.55;98504.03;4971095;28;20057;-71
2023/12/04 02:39:33;;;;;;;35.40;20.45;;;;;;;-5.80;76.92;98514.25;4962805;28;20026;-70
2023/12/04 02:41:59;;;;;;;35.47;24.33;;;;;;;-5.79;76.97;98494.94;4973303;28;20042;-70
2023/12/04 02:44:24;;;;;;;31.27;17.63;;;;;;;-5.83;76.97;98517.16;4954914;28;20031;-71
2023/12/04 02:46:50;;;;;;;34.17;28.15;;;;;;;-5.65;76.49;98509.47;4957546;28;20035;-71
2023/12/04 02:49:15;;;;;;;34.83;21.52;;;;;;;-5.86;77.15;98514.00;4970722;28;20037;-71
2023/12/04 02:51:41;;;;;;;30.63;18.10;;;;;;;-6.02;76.68;98485.66;4952714;28;20085;-70
2023/12/04 02:54:07;;;;;;;32.65;17.85;;;;;;;-5.90;76.57;98505.56;4971984;28;20023;-71
2023/12/04 02:56:32;;;;;;;31.77;25.27;;;;;;;-5.74;76.88;98508.47;4973216;28;20070;-70
2023/12/04 02:58:57;;;;;;;32.72;17.63;;;;;;;-5.93;77.06;98503.22;4957772;28;20117;-71
2023/12/04 03:01:23;;;;;;;32.65;18.90;;;;;;;-6.19;77.16;98460.13;4973405;28;20069;-71
2023/12/04 03:03:48;;;;;;;32.38;18.05;;;;;;;-6.01;76.74;98482.09;4957004;28;20122;-70
2023/12/04 03:06:16;;;;;;;33.20;17.95;;;;;;;-5.91;76.85;98484.75;4969429;28;20039;-70
2023/12/04 03:08:42;;;;;;;33.33;18.48;;;;;;;-5.89;76.87;98477.56;4967421;28;20027;-71
2023/12/04 03:11:07;;;;;;;34.78;24.75;;;;;;;-5.72;77.52;98467.19;4973715;28;20130;-71
2023/12/04 03:13:33;;;;;;;32.67;17.92;;;;;;;-5.91;77.16;98459.38;4973464;28;20534;-71
2023/12/04 03:15:59;;;;;;;30.33;17.23;;;;;;;-5.90;76.89;98461.00;4969403;28;20039;-70
2023/12/04 03:18:25;;;;;;;31.23;23.73;;;;;;;-5.78;77.38;98459.06;4970965;28;20042;-70
2023/12/04 03:20:51;;;;;;;30.48;18.85;;;;;;;-5.92;76.83;98452.44;4964493;28;20085;-70
2023/12/04 03:23:16;;;;;;;34.70;18.48;;;;;;;-5.95;77.33;98452.72;4953035;28;20026;-73
2023/12/04 03:25:42;;;;;;;35.42;22.40;;;;;;;-5.81;76.72;98454.91;4973457;28;20097;-70
2023/12/04 03:28:07;;;;;;;29.58;16.73;;;;;;;-5.92;77.15;98452.44;4972962;28;20045;-69
2023/12/04 03:30:32;;;;;;;34.22;24.30;;;;;;;-5.81;76.96;98449.66;4947740;28;20487;-70
2023/12/04 03:32:58;;;;;;;36.67;19.17;;;;;;;-6.18;77.32;98408.53;4973110;28;20110;-70
2023/12/04 03:35:23;;;;;;;31.88;18.20;;;;;;;-6.04;77.75;98437.78;4956794;28;20466;-71
2023/12/04 03:37:49;;;;;;;31.10;17.67;;;;;;;-5.99;77.48;98448.72;4972438;28;20562;-70
2023/12/04 03:40:15;;;;;;;34.30;25.42;;;;;;;-5.82;77.53;98432.28;4969012;28;20075;-70
2023/12/04 03:42:41;;;;;;;33.92;25.85;;;;;;;-5.75;77.08;98443.91;4972821;28;20035;-70
2023/12/04 03:45:07;;;;;;;31.23;20.40;;;;;;;-5.83;77.37;98448.97;4966398;28;20049;-70
2023/12/04 03:47:32;;;;;;;33.38;22.00;;;;;;;-5.79;76.87;98444.31;4955945;28;20030;-70
2023/12/04 03:49:57;;;;;;;31.08;26.35;;;;;;;-5.73;77.42;98441.13;4972727;28;20043;-69
2023/12/04 03:52:23;;;;;;;33.92;28.50;;;;;;;-5.73;76.51;98441.97;4972526;28;20105;-71
2023/12/04 03:54:48;;;;;;;34.33;27.20;;;;;;;-5.70;76.91;98436.44;4969370;28;20042;-70
2023/12/04 03:57:13;;;;;;;34.33;17.27;;;;;;;-5.89;77.00;98440.88;4956434;28;20125;-70
2023/12/04 03:59:39;;;;;;;33.70;27.10;;;;;;;-5.73;76.77;98420.97;4956559;28;20447;-70
2023/12/04 04:02:04;;;;;;;32.47;19.00;;;;;;;-5.81;76.67;98433.13;4972033;28;20041;-69
2023/12/04 04:04:29;;;;;;;29.40;17.58;;;;;;;-5.94;76.93;98417.69;4966462;28;20046;-69
2023/12/04 04:06:55;;;;;;;33.25;22.98;;;;;;;-5.77;77.15;98414.38;4951897;28;20053;-72
2023/12/04 04:09:20;;;;;;;30.60;25.80;;;;;;;-5.61;76.81;98414.63;4964645;28;20035;-71
2023/12/04 04:11:46;;;;;;;33.60;18.90;;;;;;;-5.86;77.03;98404.69;4969539;28;20038;-70
2023/12/04 04:14:11;;;;;;;29.50;25.15;;;;;;;-5.57;77.17;98403.84;4972451;28;20034;-71
2023/12/04 04:16:37;;;;;;;32.75;20.55;;;;;;;-5.61;77.16;98404.16;4972415;28;20089;-73
2023/12/04 04:19:02;;;;;;;33.42;19.98;;;;;;;-5.69;77.18;98396.13;4972554;28;20475;-70
2023/12/04 04:21:27;;;;;;;31.63;22.38;;;;;;;-5.55;77.19;98396.69;4917879;28;20035;-71
2023/12/04 04:23:53;;;;;;;32.25;25.45;;;;;;;-5.40;76.84;98401.38;4968000;28;20110;-71
2023/12/04 04:26:19;;;;;;;35.08;27.33;;;;;;;-5.39;76.82;98402.22;4971632;28;20273;-71
2023/12/04 04:28:44;;;;;;;32.60;18.52;;;;;;;-5.55;77.17;98387.00;4972104;28;20050;-70
2023/12/04 04:31:09;;;;;;;29.95;16.85;;;;;;;-5.52;76.70;98396.41;4972181;28;20375;-71
2023/12/04 04:33:35;;;;;;;33.33;24.83;;;;;;;-5.35;77.62;98387.84;4952981;28;20118;-71
2023/12/04 04:36:00;;;;;;;33.38;28.15;;;;;;;-5.34;77.18;98371.09;4966615;28;20399;-70
2023/12/04 04:38:26;;;;;;;36.67;19.58;;;;;;;-5.64;77.40;98357.22;4967247;28;20106;-71
2023/12/04 04:40:52;;;;;;;37.05;20.00;;;;;;;-5.52;76.92;98372.78;4956033;28;20029;-70
2023/12/04 04:43:19;;;;;;;34.88;18.80;;;;;;;-5.53;77.56;98366.72;4970385;28;20432;-70
2023/12/04 04:45:44;;;;;;;32.65;19.35;;;;;;;-5.51;77.82;98377.09;4968719;28;20053;-71
2023/12/04 04:48:10;;;;;;;34.00;25.23;;;;;;;-5.47;77.12;98363.53;4962750;28;20047;-72
2023/12/04 04:50:35;;;;;;;34.47;20.63;;;;;;;-5.53;77.22;98368.53;4972249;28;20117;-71
2023/12/04 04:53:00;;;;;;;31.20;17.73;;;;;;;-5.66;77.44;98359.16;4972349;28;20031;-71
2023/12/04 04:55:26;;;;;;;31.65;17.77;;;;;;;-5.65;77.67;98362.59;4977997;28;20394;-72
2023/12/04 04:57:51;;;;;;;31.27;20.92;;;;;;;-5.55;77.90;98375.72;4955812;28;20085;-71
2023/12/04 05:00:17;;;;;;;30.65;26.20;;;;;;;-5.42;77.21;98376.25;4971522;28;20093;-72
2023/12/04 05:02:43;;;;;;;34.60;21.60;;;;;;;-5.53;76.97;98368.53;4968370;28;20050;-72
2023/12/04 05:05:08;;;;;;;31.10;18.38;;;;;;;-5.73;77.44;98358.06;4952661;28;20026;-72
2023/12/04 05:07:33;;;;;;;33.78;19.65;;;;;;;-5.61;76.75;98362.19;4970563;28;20043;-72
2023/12/04 05:09:59;;;;;;;34.92;21.10;;;;;;;-5.67;77.02;98347.00;4974189;28;20034;-72
2023/12/04 05:12:24;;;;;;;36.80;28.85;;;;;;;-5.43;77.60;98345.72;4971125;28;20051;-72
2023/12/04 05:14:50;;;;;;;34.78;20.27;;;;;;;-5.70;76.81;98335.97;4973567;28;20117;-72
2023/12/04 05:17:15;;;;;;;47.72;27.77;;;;;;;-5.60;77.35;98336.75;4973380;28;20074;-72
2023/12/04 05:19:40;;;;;;;47.17;23.60;;;;;;;-5.67;76.76;98331.25;4975012;28;20427;-72
2023/12/04 05:22:06;;;;;;;42.42;21.83;;;;;;;-5.64;76.95;98325.75;4940250;28;20035;-70
2023/12/04 05:24:31;;;;;;;42.55;21.90;;;;;;;-5.62;77.63;98323.81;4970438;28;20461;-71
2023/12/04 05:26:58;;;;;;;37.15;19.88;;;;;;;-5.58;77.56;98320.91;4971588;28;20471;-71
2023/12/04 05:29:23;;;;;;;42.13;26.25;;;;;;;-5.45;77.65;98314.38;4974791;28;20109;-71
2023/12/04 05:31:48;;;;;;;48.13;26.17;;;;;;;-5.69;77.58;98312.22;4964563;28;20059;-71
2023/12/04 05:34:14;;;;;;;45.90;24.75;;;;;;;-5.69;77.43;98312.22;4973726;28;20113;-71
2023/12/04 05:36:39;;;;;;;48.05;32.17;;;;;;;-5.45;77.67;98308.31;4970158;28;20785;-71
2023/12/04 05:39:05;;;;;;;46.20;34.97;;;;;;;-5.47;77.42;98295.34;4971782;28;20394;-70
2023/12/04 05:41:30;;;;;;;45.63;24.45;;;;;;;-5.50;77.44;98315.75;4972232;28;20027;-71
2023/12/04 05:43:56;;;;;;;42.00;22.27;;;;;;;-5.54;77.63;98304.75;4952213;28;20414;-71
2023/12/04 05:46:21;;;;;;;40.90;28.90;;;;;;;-5.34;77.30;98305.50;4974063;28;20081;-70
2023/12/04 05:48:47;;;;;;;38.05;28.27;;;;;;;-5.34;76.80;98302.88;4972505;28;20081;-71
2023/12/04 05:51:12;;;;;;;41.70;32.65;;;;;;;-5.33;76.69;98296.69;4968905;28;20461;-71
2023/12/04 05:53:38;;;;;;;42.30;25.05;;;;;;;-5.42;76.63;98302.78;4971799;28;20027;-72
2023/12/04 05:56:05;;;;;;;67.13;31.48;;;;;;;-5.43;76.97;98298.50;4972838;28;20073;-72
2023/12/04 05:58:30;;;;;;;63.85;36.60;;;;;;;-5.32;77.29;98283.41;4971353;28;20026;-72
2023/12/04 06:00:56;;;;;;;52.78;25.17;;;;;;;-5.44;77.44;98281.13;4956285;28;20031;-72
2023/12/04 06:03:21;;;;;;;55.80;27.10;;;;;;;-5.37;76.82;98290.91;4951747;28;20521;-72
2023/12/04 06:05:47;;;;;;;60.72;27.52;;;;;;;-5.43;77.33;98285.38;4973136;28;20046;-74
2023/12/04 06:08:12;;;;;;;69.55;31.02;;;;;;;-5.23;77.44;98287.81;4932081;28;20515;-72
2023/12/04 06:10:37;;;;;;;58.13;27.90;;;;;;;-5.37;77.42;98254.16;4955387;28;20042;-72
2023/12/04 06:13:03;;;;;;;52.50;35.92;;;;;;;-5.05;77.61;98269.50;4975412;28;20545;-72
2023/12/04 06:15:29;;;;;;;46.00;22.40;;;;;;;-5.27;77.62;98259.34;4953942;28;20066;-72
2023/12/04 06:17:54;;;;;;;46.80;35.42;;;;;;;-4.94;77.52;98277.19;4970472;28;20019;-72
2023/12/04 06:20:19;;;;;;;41.83;26.13;;;;;;;-5.14;77.76;98254.63;4949377;28;20030;-72
2023/12/04 06:22:45;;;;;;;46.17;35.58;;;;;;;-4.91;78.09;98282.16;4948535;28;20394;-72
2023/12/04 06:25:11;;;;;;;43.03;32.42;;;;;;;-4.91;77.69;98277.72;4968119;28;20035;-72
2023/12/04 06:27:38;;;;;;;41.33;31.08;;;;;;;-4.93;77.96;98268.34;4945283;28;20035;-72
2023/12/04 06:30:05;;;;;;;40.60;27.00;;;;;;;-4.95;78.22;98275.53;4955782;28;20050;-72
2023/12/04 06:32:30;;;;;;;43.33;33.63;;;;;;;-4.87;78.34;98273.00;4928859;28;20138;-72
2023/12/04 06:34:56;;;;;;;38.33;25.73;;;;;;;-5.02;78.44;98254.28;4965168;28;20118;-72
2023/12/04 06:37:22;;;;;;;43.33;22.05;;;;;;;-5.06;78.18;98273.09;4967578;28;20023;-72
2023/12/04 06:39:48;;;;;;;41.08;27.20;;;;;;;-4.93;78.94;98273.59;4972178;28;20042;-72
2023/12/04 06:42:14;;;;;;;45.10;23.42;;;;;;;-5.02;78.86;98279.72;4948471;28;20023;-72
2023/12/04 06:44:40;;;;;;;43.25;25.08;;;;;;;-4.97;78.97;98261.75;4955355;28;20062;-72
2023/12/04 06:47:08;;;;;;;41.10;30.83;;;;;;;-4.80;79.14;98274.06;4947305;28;20124;-71
2023/12/04 06:49:33;;;;;;;42.72;23.30;;;;;;;-5.09;78.89;98239.28;4967535;28;20118;-72
2023/12/04 06:51:59;;;;;;;47.35;26.73;;;;;;;-4.99;79.34;98258.41;4967055;28;20031;-72
2023/12/04 06:54:25;;;;;;;43.03;35.30;;;;;;;-4.69;78.79;98258.09;4953002;28;20047;-72
2023/12/04 06:56:50;;;;;;;45.20;27.10;;;;;;;-4.96;78.58;98237.97;4952835;28;20023;-72
2023/12/04 06:59:17;;;;;;;46.83;29.90;;;;;;;-4.70;79.15;98266.13;4956106;28;20042;-72
2023/12/04 07:01:43;;;;;;;46.03;25.02;;;;;;;-4.91;78.99;98240.13;4972419;28;20114;-72
2023/12/04 07:04:09;;;;;;;48.55;26.77;;;;;;;-4.84;78.81;98246.47;4950305;28;20203;-72
2023/12/04 07:06:41;;;;;;;47.05;25.80;;;;;;;-4.95;79.13;98218.59;4956715;28;20165;-72
2023/12/04 07:09:09;;;;;;;47.55;30.63;;;;;;;-4.60;79.02;98259.03;4947089;28;20043;-72
2023/12/04 07:11:34;;;;;;;49.60;26.50;;;;;;;-4.79;79.11;98246.84;4973998;28;20101;-72
2023/12/04 07:14:00;;;;;;;140.40;66.35;;;;;;;-4.77;79.43;98258.03;4970423;28;20796;-72
2023/12/04 07:16:25;;;;;;;44.35;24.48;;;;;;;-4.70;78.87;98264.34;4971910;28;20093;-73
2023/12/04 07:18:51;;;;;;;44.25;26.95;;;;;;;-4.80;79.21;98257.47;4955609;28;20054;-73
2023/12/04 07:21:16;;;;;;;51.88;36.90;;;;;;;-4.66;79.28;98252.56;4969483;28;20031;-73
2023/12/04 07:23:42;;;;;;;46.08;25.73;;;;;;;-4.78;79.64;98245.84;4954481;28;20467;-73
2023/12/04 07:26:07;;;;;;;50.10;25.25;;;;;;;-4.68;78.90;98266.81;4953372;28;20035;-72
2023/12/04 07:28:33;;;;;;;46.78;32.90;;;;;;;-4.59;79.32;98256.25;4952597;28;20042;-72
2023/12/04 07:30:59;;;;;;;49.03;31.92;;;;;;;-4.56;78.90;98266.47;4956233;28;20026;-72
2023/12/04 07:33:24;;;;;;;45.15;27.83;;;;;;;-4.70;79.02;98264.34;4963559;28;20051;-73
2023/12/04 07:35:51;;;;;;;39.50;22.80;;;;;;;-4.83;78.80;98269.09;4971323;28;20034;-72
2023/12/04 07:38:16;;;;;;;42.08;23.45;;;;;;;-5.06;79.61;98220.59;4955361;28;20435;-73
2023/12/04 07:40:41;;;;;;;39.75;21.75;;;;;;;-4.72;78.80;98266.28;4969860;28;20033;-73
2023/12/04 07:43:07;;;;;;;77.35;37.30;;;;;;;-4.66;78.20;98256.97;4968738;28;20039;-72
2023/12/04 07:45:34;;;;;;;108.20;49.97;;;;;;;-4.54;78.73;98254.00;4951326;28;20487;-72
2023/12/04 07:48:00;;;;;;;62.97;33.63;;;;;;;-4.58;79.01;98226.38;4970732;28;20031;-73
2023/12/04 07:50:25;;;;;;;69.30;36.63;;;;;;;-4.38;78.99;98242.81;4978325;28;20578;-73
2023/12/04 07:52:51;;;;;;;60.13;31.95;;;;;;;-4.37;78.77;98229.56;4936212;28;20074;-73
2023/12/04 07:55:16;;;;;;;76.25;42.05;;;;;;;-4.20;78.79;98244.47;4978508;28;20022;-73
2023/12/04 07:57:42;;;;;;;69.97;38.58;;;;;;;-4.18;78.67;98253.03;4969305;28;20035;-72
2023/12/04 08:00:07;;;;;;;81.18;41.03;;;;;;;-4.15;77.87;98259.78;4945760;28;20027;-72
2023/12/04 08:02:33;;;;;;;70.43;36.58;;;;;;;-4.24;78.62;98253.66;4970583;28;20046;-73
2023/12/04 08:04:58;;;;;;;66.90;35.45;;;;;;;-4.15;78.36;98265.06;4939176;28;20030;-73
2023/12/04 08:07:24;;;;;;;68.10;36.13;;;;;;;-4.17;78.60;98251.25;4966570;28;20098;-72
2023/12/04 08:09:49;;;;;;;61.05;32.25;;;;;;;-4.09;78.26;98253.13;4966742;28;20026;-72
2023/12/04 08:12:15;;;;;;;64.90;44.03;;;;;;;-3.94;78.46;98239.25;4955867;28;20582;-73
2023/12/04 08:14:40;;;;;;;51.78;30.23;;;;;;;-4.03;77.89;98231.47;4955989;28;20037;-73
2023/12/04 08:17:06;;;;;;;53.25;41.45;;;;;;;-3.75;78.14;98236.47;4948414;28;20388;-72
2023/12/04 08:19:31;;;;;;;50.90;29.95;;;;;;;-3.79;78.12;98244.81;4955954;28;20029;-72
2023/12/04 08:21:57;;;;;;;57.55;31.42;;;;;;;-3.66;77.92;98242.59;4964663;28;20105;-72
2023/12/04 08:24:22;;;;;;;65.93;36.40;;;;;;;-3.61;78.18;98237.69;4966762;28;20027;-73
2023/12/04 08:26:48;;;;;;;63.15;35.55;;;;;;;-3.57;78.52;98237.22;4970554;28;20081;-72
2023/12/04 08:29:14;;;;;;;61.13;35.85;;;;;;;-3.50;77.76;98229.53;4947500;28;20454;-72
2023/12/04 08:31:39;;;;;;;62.22;35.40;;;;;;;-3.52;78.17;98216.53;4971326;28;20121;-73
2023/12/04 08:34:04;;;;;;;50.80;29.67;;;;;;;-3.44;78.41;98223.66;4945242;29;20494;-73
2023/12/04 08:36:30;;;;;;;47.67;27.83;;;;;;;-3.34;77.75;98219.13;4969781;28;20046;-72
2023/12/04 08:38:55;;;;;;;48.70;33.22;;;;;;;-3.18;78.26;98213.94;4967775;28;20110;-72
2023/12/04 08:41:20;;;;;;;43.10;25.42;;;;;;;-3.18;78.07;98200.78;4974309;28;20061;-72
2023/12/04 08:43:46;;;;;;;48.63;28.63;;;;;;;-3.24;77.76;98190.84;4965449;28;20085;-73
2023/12/04 08:46:14;;;;;;;49.28;30.70;;;;;;;-3.13;77.50;98190.59;4968096;28;20039;-72
2023/12/04 08:48:40;;;;;;;50.17;31.05;;;;;;;-3.24;77.53;98193.47;4955108;28;20027;-72
2023/12/04 08:51:08;;;;;;;51.83;30.92;;;;;;;-3.19;77.86;98191.22;4976467;28;20038;-72
2023/12/04 08:53:33;;;;;;;52.50;39.83;;;;;;;-3.20;77.91;98157.16;4971405;28;20034;-72
2023/12/04 08:55:58;;;;;;;53.75;30.42;;;;;;;-3.12;77.00;98194.84;4978453;28;20103;-72
2023/12/04 08:58:24;;;;;;;62.28;36.33;;;;;;;-3.06;76.98;98196.03;4940904;28;20023;-72
2023/12/04 09:00:49;;;;;;;63.30;37.75;;;;;;;-3.02;76.84;98192.94;4971193;28;20414;-72
2023/12/04 09:03:15;;;;;;;61.65;36.38;;;;;;;-3.06;77.39;98186.34;4972223;28;20101;-72
2023/12/04 09:05:40;;;;;;;66.35;39.45;;;;;;;-3.01;77.24;98178.75;4970056;28;20513;-72
2023/12/04 09:08:06;;;;;;;64.80;38.00;;;;;;;-2.85;76.83;98185.91;4967463;28;20027;-72
2023/12/04 09:10:32;;;;;;;68.53;38.30;;;;;;;-2.72;76.40;98177.50;4964802;28;20129;-72
2023/12/04 09:12:57;;;;;;;59.25;35.65;;;;;;;-2.57;76.66;98181.19;4950047;28;20030;-73
2023/12/04 09:15:22;;;;;;;59.03;35.17;;;;;;;-2.44;76.47;98170.97;4970350;28;20034;-72
2023/12/04 09:17:48;;;;;;;52.13;32.45;;;;;;;-2.44;76.71;98171.81;4965093;28;20038;-72
2023/12/04 09:20:13;;;;;;;42.97;28.33;;;;;;;-2.53;76.73;98166.69;4970170;28;20039;-72
2023/12/04 09:22:40;;;;;;;47.65;27.90;;;;;;;-2.38;76.13;98167.69;4946516;28;20056;-72
2023/12/04 09:25:06;;;;;;;40.17;26.15;;;;;;;-2.29;76.35;98153.53;4965474;28;20395;-72
2023/12/04 09:27:31;;;;;;;35.85;23.65;;;;;;;-2.23;76.20;98166.03;4966508;28;20034;-72
2023/12/04 09:29:57;;;;;;;38.75;23.80;;;;;;;-2.11;76.31;98176.09;4964330;28;20046;-73
2023/12/04 09:32:22;;;;;;;37.42;25.00;;;;;;;-2.04;76.16;98170.16;4966057;28;20071;-73
2023/12/04 09:34:47;;;;;;;37.67;23.50;;;;;;;-2.15;76.05;98176.59;4971089;28;20576;-72
2023/12/04 09:37:14;;;;;;;37.95;29.00;;;;;;;-2.11;76.41;98172.63;4963340;28;20019;-72
2023/12/04 09:39:39;;;;;;;32.47;20.63;;;;;;;-2.19;76.18;98170.00;4970376;28;20135;-72
2023/12/04 09:42:05;;;;;;;34.22;23.60;;;;;;;-2.12;75.98;98166.53;4928465;29;20031;-72
2023/12/04 09:44:30;;;;;;;35.10;23.05;;;;;;;-2.10;75.71;98158.44;4935711;28;20115;-72
2023/12/04 09:46:56;;;;;;;35.75;29.60;;;;;;;-1.90;75.24;98154.47;4949495;28;20054;-72
2023/12/04 09:49:22;;;;;;;43.38;26.83;;;;;;;-1.93;74.81;98152.16;4970389;28;20567;-73
2023/12/04 09:51:47;;;;;;;44.83;27.45;;;;;;;-1.98;75.67;98146.56;4933193;28;20367;-72
2023/12/04 09:54:16;;;;;;;32.00;24.75;;;;;;;-1.77;75.34;98138.94;4978147;28;20550;-72
2023/12/04 09:56:43;;;;;;;34.33;22.48;;;;;;;-1.78;74.56;98147.03;4978613;28;20045;-72
2023/12/04 09:59:09;;;;;;;41.90;27.35;;;;;;;-1.94;75.16;98147.06;4974193;28;20038;-73
2023/12/04 10:01:36;;;;;;;46.75;27.88;;;;;;;-1.72;75.00;98146.34;4975732;28;20057;-72
2023/12/04 10:04:04;;;;;;;43.40;27.67;;;;;;;-1.69;75.31;98152.13;4968489;28;20495;-72
2023/12/04 10:06:30;;;;;;;39.92;29.58;;;;;;;-1.53;75.33;98146.81;4973826;28;20495;-72
2023/12/04 10:08:58;;;;;;;41.42;30.90;;;;;;;-1.47;74.85;98146.13;4964446;28;20065;-73
2023/12/04 10:11:24;;;;;;;39.72;25.40;;;;;;;-1.43;74.51;98134.25;4941782;28;20035;-72
2023/12/04 10:13:50;;;;;;;37.85;25.35;;;;;;;-1.36;74.55;98125.63;4973043;28;20094;-72
2023/12/04 10:16:31;;;;;;;38.50;25.15;;;;;;;-1.21;73.97;98124.72;4971521;28;20026;-72
2023/12/04 10:18:57;;;;;;;48.63;32.47;;;;;;;-1.11;73.92;98113.94;4970901;28;20039;-73
2023/12/04 10:21:22;;;;;;;28.95;19.27;;;;;;;-1.26;73.54;98105.13;4971585;28;20038;-73
2023/12/04 10:23:47;;;;;;;26.05;18.90;;;;;;;-1.16;73.29;98111.84;4970986;28;20122;-73
2023/12/04 10:26:16;;;;;;;28.52;25.45;;;;;;;-1.05;73.00;98118.56;4950474;28;20452;-72
2023/12/04 10:28:58;;;;;;;28.20;24.27;;;;;;;-1.20;72.07;98096.50;4954534;28;20043;-73
2023/12/04 10:31:23;;;;;;;28.05;19.50;;;;;;;-1.17;72.50;98104.09;4974335;28;20042;-72
2023/12/04 10:33:49;;;;;;;23.85;21.17;;;;;;;-1.04;71.60;98094.59;4955332;28;20023;-72
2023/12/04 10:36:15;;;;;;;23.90;21.40;;;;;;;-0.94;71.89;98091.72;4941417;28;20376;-72
2023/12/04 10:38:40;;;;;;;30.65;21.77;;;;;;;-1.04;71.19;98064.69;4958060;28;20050;-72
2023/12/04 10:41:13;;;;;;;34.65;30.63;;;;;;;-0.83;70.88;98059.59;4957395;28;20117;-73
2023/12/04 10:43:46;;;;;;;26.90;23.00;;;;;;;-0.72;71.04;98045.97;4941442;28;20062;-72
2023/12/04 10:46:12;;;;;;;26.67;19.48;;;;;;;-0.68;71.19;98032.22;4972777;28;20030;-72
2023/12/04 10:48:38;;;;;;;30.27;23.75;;;;;;;-0.35;71.28;98022.19;4935095;28;20648;-72
2023/12/04 10:51:05;;;;;;;30.40;26.63;;;;;;;-0.16;69.96;98005.78;4968653;28;20082;-72
2023/12/04 10:53:30;;;;;;;29.63;24.52;;;;;;;0.02;69.94;97975.50;4957194;28;20031;-72
2023/12/04 10:55:57;;;;;;;24.48;21.85;;;;;;;0.14;69.27;97995.22;4963792;28;20039;-73
2023/12/04 10:58:26;;;;;;;28.38;19.20;;;;;;;0.20;69.32;97999.75;4971607;28;20027;-72
2023/12/04 11:00:54;;;;;;;29.15;25.33;;;;;;;0.31;70.18;97980.75;4972130;28;20046;-72
2023/12/04 11:03:34;;;;;;;26.38;22.95;;;;;;;0.38;69.45;97984.28;4949216;28;20031;-73
2023/12/04 11:06:01;;;;;;;25.50;22.73;;;;;;;0.43;69.38;97979.28;4973780;28;20038;-72
2023/12/04 11:08:29;;;;;;;26.25;22.70;;;;;;;0.61;69.36;97979.69;4949520;28;20027;-73
2023/12/04 11:10:58;;;;;;;25.15;20.85;;;;;;;0.48;69.13;97964.47;4969821;28;20102;-73